sensor_id;sensor_type;location;lat;lon;timestamp;P1;durP1;ratioP1;P2;durP2;ratioP2
15451;SDS011;7827;53.594;9.938;2023-07-28T00:00:17;0.50;;;0.50;;
15451;SDS011;7827;53.594;9.938;2023-07-28T00:02:47;0.50;;;0.50;;
15451;SDS011;7827;53.594;9.938;2023-07-28T00:05:15;0.50;;;0.50;;
15451;SDS011;7827;53.594;9.938;2023-07-28T00:07:43;0.40;;;0.40;;
15451;SDS011;7827;53.594;9.938;2023-07-28T00:10:12;0.50;;;0.50;;
15451;SDS011;7827;53.594;9.938;2023-07-28T00:12:40;0.50;;;0.50;;
15451;SDS011;7827;53.594;9.938;2023-07-28T00:15:09;0.50;;;0.50;;
15451;SDS011;7827;53.594;9.938;2023-07-28T00:17:37;0.50;;;0.50;;
15451;SDS011;7827;53.594;9.938;2023-07-28T00:20:08;0.40;;;0.40;;
15451;SDS011;7827;53.594;9.938;2023-07-28T00:22:37;0.50;;;0.50;;
15451;SDS011;7827;53.594;9.938;2023-07-28T00:25:05;0.50;;;0.50;;
15451;SDS011;7827;53.594;9.938;2023-07-28T00:27:34;0.50;;;0.50;;
15451;SDS011;7827;53.594;9.938;2023-07-28T00:30:04;0.50;;;0.50;;
15451;SDS011;7827;53.594;9.938;2023-07-28T00:32:33;0.50;;;0.50;;
15451;SDS011;7827;53.594;9.938;2023-07-28T00:35:02;0.50;;;0.50;;
15451;SDS011;7827;53.594;9.938;2023-07-28T00:37:33;0.50;;;0.50;;
15451;SDS011;7827;53.594;9.938;2023-07-28T00:40:01;0.50;;;0.50;;
15451;SDS011;7827;53.594;9.938;2023-07-28T00:42:30;0.60;;;0.60;;
15451;SDS011;7827;53.594;9.938;2023-07-28T00:45:02;0.50;;;0.50;;
15451;SDS011;7827;53.594;9.938;2023-07-28T00:47:32;0.50;;;0.50;;
15451;SDS011;7827;53.594;9.938;2023-07-28T00:50:00;0.50;;;0.50;;
15451;SDS011;7827;53.594;9.938;2023-07-28T00:52:29;0.50;;;0.50;;
15451;SDS011;7827;53.594;9.938;2023-07-28T00:54:59;0.50;;;0.50;;
15451;SDS011;7827;53.594;9.938;2023-07-28T00:57:29;0.50;;;0.50;;
15451;SDS011;7827;53.594;9.938;2023-07-28T00:59:57;0.47;;;0.47;;
15451;SDS011;7827;53.594;9.938;2023-07-28T01:02:25;0.50;;;0.50;;
15451;SDS011;7827;53.594;9.938;2023-07-28T01:04:54;0.50;;;0.50;;
15451;SDS011;7827;53.594;9.938;2023-07-28T01:07:25;0.50;;;0.50;;
15451;SDS011;7827;53.594;9.938;2023-07-28T01:10:06;0.50;;;0.50;;
15451;SDS011;7827;53.594;9.938;2023-07-28T01:12:40;0.50;;;0.50;;
15451;SDS011;7827;53.594;9.938;2023-07-28T01:15:09;0.50;;;0.50;;
15451;SDS011;7827;53.594;9.938;2023-07-28T01:17:37;0.50;;;0.50;;
15451;SDS011;7827;53.594;9.938;2023-07-28T01:20:06;0.50;;;0.50;;
15451;SDS011;7827;53.594;9.938;2023-07-28T01:22:40;0.45;;;0.45;;
15451;SDS011;7827;53.594;9.938;2023-07-28T01:25:26;0.60;;;0.60;;
15451;SDS011;7827;53.594;9.938;2023-07-28T01:28:05;0.50;;;0.50;;
15451;SDS011;7827;53.594;9.938;2023-07-28T01:30:34;0.50;;;0.50;;
15451;SDS011;7827;53.594;9.938;2023-07-28T01:33:05;0.50;;;0.50;;
15451;SDS011;7827;53.594;9.938;2023-07-28T01:35:35;0.50;;;0.50;;
15451;SDS011;7827;53.594;9.938;2023-07-28T01:38:04;0.50;;;0.50;;
15451;SDS011;7827;53.594;9.938;2023-07-28T01:40:33;0.50;;;0.50;;
15451;SDS011;7827;53.594;9.938;2023-07-28T01:43:01;0.60;;;0.60;;
15451;SDS011;7827;53.594;9.938;2023-07-28T01:45:31;0.50;;;0.50;;
15451;SDS011;7827;53.594;9.938;2023-07-28T01:47:59;0.50;;;0.50;;
15451;SDS011;7827;53.594;9.938;2023-07-28T01:50:28;0.50;;;0.50;;
15451;SDS011;7827;53.594;9.938;2023-07-28T01:52:56;0.50;;;0.50;;
15451;SDS011;7827;53.594;9.938;2023-07-28T01:55:25;0.50;;;0.50;;
15451;SDS011;7827;53.594;9.938;2023-07-28T01:57:55;0.50;;;0.50;;
15451;SDS011;7827;53.594;9.938;2023-07-28T02:00:27;0.50;;;0.50;;
15451;SDS011;7827;53.594;9.938;2023-07-28T02:02:57;0.50;;;0.50;;
15451;SDS011;7827;53.594;9.938;2023-07-28T02:05:28;0.50;;;0.50;;
15451;SDS011;7827;53.594;9.938;2023-07-28T02:07:57;0.40;;;0.40;;
15451;SDS011;7827;53.594;9.938;2023-07-28T02:10:26;0.40;;;0.40;;
15451;SDS011;7827;53.594;9.938;2023-07-28T02:12:56;0.40;;;0.40;;
15451;SDS011;7827;53.594;9.938;2023-07-28T02:15:24;0.50;;;0.50;;
15451;SDS011;7827;53.594;9.938;2023-07-28T02:17:52;0.50;;;0.50;;
15451;SDS011;7827;53.594;9.938;2023-07-28T02:20:24;0.50;;;0.50;;
15451;SDS011;7827;53.594;9.938;2023-07-28T02:22:52;0.50;;;0.50;;
15451;SDS011;7827;53.594;9.938;2023-07-28T02:25:21;0.50;;;0.50;;
15451;SDS011;7827;53.594;9.938;2023-07-28T02:27:49;0.50;;;0.50;;
15451;SDS011;7827;53.594;9.938;2023-07-28T02:30:18;0.50;;;0.50;;
15451;SDS011;7827;53.594;9.938;2023-07-28T02:32:46;0.55;;;0.55;;
15451;SDS011;7827;53.594;9.938;2023-07-28T02:35:14;0.50;;;0.50;;
15451;SDS011;7827;53.594;9.938;2023-07-28T02:37:48;0.50;;;0.50;;
15451;SDS011;7827;53.594;9.938;2023-07-28T02:40:16;0.57;;;0.57;;
15451;SDS011;7827;53.594;9.938;2023-07-28T02:42:44;0.40;;;0.40;;
15451;SDS011;7827;53.594;9.938;2023-07-28T02:45:13;0.60;;;0.60;;
15451;SDS011;7827;53.594;9.938;2023-07-28T02:47:41;0.50;;;0.50;;
15451;SDS011;7827;53.594;9.938;2023-07-28T02:50:10;0.50;;;0.50;;
15451;SDS011;7827;53.594;9.938;2023-07-28T02:52:38;0.50;;;0.50;;
15451;SDS011;7827;53.594;9.938;2023-07-28T02:55:08;0.50;;;0.50;;
15451;SDS011;7827;53.594;9.938;2023-07-28T02:57:36;0.50;;;0.50;;
15451;SDS011;7827;53.594;9.938;2023-07-28T03:00:06;0.50;;;0.50;;
15451;SDS011;7827;53.594;9.938;2023-07-28T03:02:37;0.60;;;0.60;;
15451;SDS011;7827;53.594;9.938;2023-07-28T03:05:06;0.50;;;0.50;;
15451;SDS011;7827;53.594;9.938;2023-07-28T03:07:48;0.50;;;0.50;;
15451;SDS011;7827;53.594;9.938;2023-07-28T03:10:18;0.50;;;0.50;;
15451;SDS011;7827;53.594;9.938;2023-07-28T03:12:47;0.50;;;0.50;;
15451;SDS011;7827;53.594;9.938;2023-07-28T03:15:15;0.60;;;0.60;;
15451;SDS011;7827;53.594;9.938;2023-07-28T03:17:43;0.50;;;0.50;;
15451;SDS011;7827;53.594;9.938;2023-07-28T03:20:12;0.50;;;0.50;;
15451;SDS011;7827;53.594;9.938;2023-07-28T03:22:40;0.50;;;0.50;;
15451;SDS011;7827;53.594;9.938;2023-07-28T03:25:08;0.50;;;0.50;;
15451;SDS011;7827;53.594;9.938;2023-07-28T03:27:39;0.45;;;0.45;;
15451;SDS011;7827;53.594;9.938;2023-07-28T03:30:07;0.50;;;0.50;;
15451;SDS011;7827;53.594;9.938;2023-07-28T03:32:37;0.50;;;0.50;;
15451;SDS011;7827;53.594;9.938;2023-07-28T03:35:06;0.60;;;0.60;;
15451;SDS011;7827;53.594;9.938;2023-07-28T03:37:42;0.50;;;0.50;;
15451;SDS011;7827;53.594;9.938;2023-07-28T03:40:10;0.60;;;0.60;;
15451;SDS011;7827;53.594;9.938;2023-07-28T03:42:48;0.60;;;0.60;;
15451;SDS011;7827;53.594;9.938;2023-07-28T03:45:17;0.50;;;0.50;;
15451;SDS011;7827;53.594;9.938;2023-07-28T03:47:45;0.60;;;0.60;;
15451;SDS011;7827;53.594;9.938;2023-07-28T03:50:13;0.50;;;0.50;;
15451;SDS011;7827;53.594;9.938;2023-07-28T03:52:44;0.50;;;0.50;;
15451;SDS011;7827;53.594;9.938;2023-07-28T03:55:13;0.60;;;0.60;;
15451;SDS011;7827;53.594;9.938;2023-07-28T03:57:41;0.60;;;0.60;;
15451;SDS011;7827;53.594;9.938;2023-07-28T04:00:12;0.50;;;0.50;;
15451;SDS011;7827;53.594;9.938;2023-07-28T04:02:41;0.60;;;0.60;;
15451;SDS011;7827;53.594;9.938;2023-07-28T04:05:09;0.60;;;0.60;;
15451;SDS011;7827;53.594;9.938;2023-07-28T04:07:38;0.55;;;0.55;;
15451;SDS011;7827;53.594;9.938;2023-07-28T04:10:06;0.60;;;0.60;;
15451;SDS011;7827;53.594;9.938;2023-07-28T04:12:35;0.60;;;0.60;;
15451;SDS011;7827;53.594;9.938;2023-07-28T04:15:04;0.60;;;0.60;;
15451;SDS011;7827;53.594;9.938;2023-07-28T04:17:35;0.60;;;0.60;;
15451;SDS011;7827;53.594;9.938;2023-07-28T04:20:04;0.60;;;0.60;;
15451;SDS011;7827;53.594;9.938;2023-07-28T04:22:34;0.60;;;0.60;;
15451;SDS011;7827;53.594;9.938;2023-07-28T04:25:02;0.60;;;0.60;;
15451;SDS011;7827;53.594;9.938;2023-07-28T04:27:32;0.50;;;0.50;;
15451;SDS011;7827;53.594;9.938;2023-07-28T04:30:03;0.50;;;0.50;;
15451;SDS011;7827;53.594;9.938;2023-07-28T04:32:34;0.60;;;0.60;;
15451;SDS011;7827;53.594;9.938;2023-07-28T04:35:10;0.60;;;0.60;;
15451;SDS011;7827;53.594;9.938;2023-07-28T04:38:07;0.60;;;0.60;;
15451;SDS011;7827;53.594;9.938;2023-07-28T04:40:54;0.60;;;0.60;;
15451;SDS011;7827;53.594;9.938;2023-07-28T04:43:37;0.50;;;0.50;;
15451;SDS011;7827;53.594;9.938;2023-07-28T04:46:06;0.60;;;0.60;;
15451;SDS011;7827;53.594;9.938;2023-07-28T04:48:35;0.50;;;0.50;;
15451;SDS011;7827;53.594;9.938;2023-07-28T04:51:23;0.60;;;0.60;;
15451;SDS011;7827;53.594;9.938;2023-07-28T04:54:27;0.60;;;0.60;;
15451;SDS011;7827;53.594;9.938;2023-07-28T04:56:56;0.60;;;0.60;;
15451;SDS011;7827;53.594;9.938;2023-07-28T04:59:31;0.57;;;0.57;;
15451;SDS011;7827;53.594;9.938;2023-07-28T05:01:59;0.50;;;0.50;;
15451;SDS011;7827;53.594;9.938;2023-07-28T05:04:29;0.60;;;0.60;;
15451;SDS011;7827;53.594;9.938;2023-07-28T05:06:57;0.52;;;0.52;;
15451;SDS011;7827;53.594;9.938;2023-07-28T05:09:26;0.60;;;0.60;;
15451;SDS011;7827;53.594;9.938;2023-07-28T05:11:55;0.60;;;0.60;;
15451;SDS011;7827;53.594;9.938;2023-07-28T05:14:24;0.60;;;0.60;;
15451;SDS011;7827;53.594;9.938;2023-07-28T05:16:53;0.55;;;0.55;;
15451;SDS011;7827;53.594;9.938;2023-07-28T05:19:36;0.50;;;0.50;;
15451;SDS011;7827;53.594;9.938;2023-07-28T05:22:33;0.60;;;0.60;;
15451;SDS011;7827;53.594;9.938;2023-07-28T05:25:01;0.60;;;0.60;;
15451;SDS011;7827;53.594;9.938;2023-07-28T05:27:32;0.57;;;0.57;;
15451;SDS011;7827;53.594;9.938;2023-07-28T05:30:00;0.50;;;0.50;;
15451;SDS011;7827;53.594;9.938;2023-07-28T05:32:29;0.60;;;0.60;;
15451;SDS011;7827;53.594;9.938;2023-07-28T05:35:08;0.50;;;0.50;;
15451;SDS011;7827;53.594;9.938;2023-07-28T05:37:36;0.52;;;0.52;;
15451;SDS011;7827;53.594;9.938;2023-07-28T05:40:05;0.50;;;0.50;;
15451;SDS011;7827;53.594;9.938;2023-07-28T05:42:35;0.50;;;0.50;;
15451;SDS011;7827;53.594;9.938;2023-07-28T05:45:05;0.60;;;0.60;;
15451;SDS011;7827;53.594;9.938;2023-07-28T05:47:34;0.50;;;0.50;;
15451;SDS011;7827;53.594;9.938;2023-07-28T05:50:03;0.50;;;0.50;;
15451;SDS011;7827;53.594;9.938;2023-07-28T05:52:34;0.50;;;0.50;;
15451;SDS011;7827;53.594;9.938;2023-07-28T05:55:03;0.57;;;0.57;;
15451;SDS011;7827;53.594;9.938;2023-07-28T05:57:32;0.52;;;0.52;;
15451;SDS011;7827;53.594;9.938;2023-07-28T06:00:05;0.50;;;0.50;;
15451;SDS011;7827;53.594;9.938;2023-07-28T06:02:42;0.52;;;0.52;;
15451;SDS011;7827;53.594;9.938;2023-07-28T06:05:25;0.60;;;0.60;;
15451;SDS011;7827;53.594;9.938;2023-07-28T06:07:55;0.50;;;0.50;;
15451;SDS011;7827;53.594;9.938;2023-07-28T06:10:23;0.50;;;0.50;;
15451;SDS011;7827;53.594;9.938;2023-07-28T06:12:52;0.50;;;0.50;;
15451;SDS011;7827;53.594;9.938;2023-07-28T06:15:21;0.50;;;0.50;;
15451;SDS011;7827;53.594;9.938;2023-07-28T06:17:49;0.50;;;0.50;;
15451;SDS011;7827;53.594;9.938;2023-07-28T06:20:18;0.40;;;0.40;;
15451;SDS011;7827;53.594;9.938;2023-07-28T06:22:46;0.47;;;0.47;;
15451;SDS011;7827;53.594;9.938;2023-07-28T06:25:16;0.50;;;0.50;;
15451;SDS011;7827;53.594;9.938;2023-07-28T06:27:44;0.50;;;0.50;;
15451;SDS011;7827;53.594;9.938;2023-07-28T06:30:13;0.50;;;0.50;;
15451;SDS011;7827;53.594;9.938;2023-07-28T06:32:42;0.40;;;0.40;;
15451;SDS011;7827;53.594;9.938;2023-07-28T06:35:10;0.50;;;0.50;;
15451;SDS011;7827;53.594;9.938;2023-07-28T06:37:39;0.47;;;0.47;;
15451;SDS011;7827;53.594;9.938;2023-07-28T06:40:08;0.40;;;0.40;;
15451;SDS011;7827;53.594;9.938;2023-07-28T06:42:38;0.50;;;0.50;;
15451;SDS011;7827;53.594;9.938;2023-07-28T06:45:07;0.50;;;0.50;;
15451;SDS011;7827;53.594;9.938;2023-07-28T06:47:36;0.40;;;0.40;;
15451;SDS011;7827;53.594;9.938;2023-07-28T06:50:05;0.50;;;0.50;;
15451;SDS011;7827;53.594;9.938;2023-07-28T06:52:34;0.50;;;0.50;;
15451;SDS011;7827;53.594;9.938;2023-07-28T06:55:03;0.50;;;0.50;;
15451;SDS011;7827;53.594;9.938;2023-07-28T06:57:34;0.43;;;0.43;;
15451;SDS011;7827;53.594;9.938;2023-07-28T07:00:07;0.40;;;0.40;;
15451;SDS011;7827;53.594;9.938;2023-07-28T07:02:37;0.50;;;0.50;;
15451;SDS011;7827;53.594;9.938;2023-07-28T07:05:05;0.50;;;0.50;;
15451;SDS011;7827;53.594;9.938;2023-07-28T07:07:35;0.50;;;0.50;;
15451;SDS011;7827;53.594;9.938;2023-07-28T07:10:04;0.50;;;0.50;;
15451;SDS011;7827;53.594;9.938;2023-07-28T07:12:34;0.50;;;0.50;;
15451;SDS011;7827;53.594;9.938;2023-07-28T07:15:04;0.40;;;0.40;;
15451;SDS011;7827;53.594;9.938;2023-07-28T07:17:35;0.40;;;0.40;;
15451;SDS011;7827;53.594;9.938;2023-07-28T07:20:04;0.50;;;0.50;;
15451;SDS011;7827;53.594;9.938;2023-07-28T07:22:34;0.50;;;0.50;;
15451;SDS011;7827;53.594;9.938;2023-07-28T07:25:03;0.45;;;0.45;;
15451;SDS011;7827;53.594;9.938;2023-07-28T07:27:33;0.40;;;0.40;;
15451;SDS011;7827;53.594;9.938;2023-07-28T07:30:02;0.50;;;0.50;;
15451;SDS011;7827;53.594;9.938;2023-07-28T07:32:33;0.50;;;0.50;;
15451;SDS011;7827;53.594;9.938;2023-07-28T07:35:02;0.50;;;0.50;;
15451;SDS011;7827;53.594;9.938;2023-07-28T07:37:31;0.40;;;0.40;;
15451;SDS011;7827;53.594;9.938;2023-07-28T07:39:59;0.50;;;0.50;;
15451;SDS011;7827;53.594;9.938;2023-07-28T07:42:28;0.50;;;0.50;;
15451;SDS011;7827;53.594;9.938;2023-07-28T07:45:08;0.47;;;0.47;;
15451;SDS011;7827;53.594;9.938;2023-07-28T07:47:40;0.50;;;0.50;;
15451;SDS011;7827;53.594;9.938;2023-07-28T07:50:10;0.40;;;0.40;;
15451;SDS011;7827;53.594;9.938;2023-07-28T07:52:40;0.40;;;0.40;;
15451;SDS011;7827;53.594;9.938;2023-07-28T07:55:09;0.40;;;0.40;;
15451;SDS011;7827;53.594;9.938;2023-07-28T07:57:38;0.40;;;0.40;;
15451;SDS011;7827;53.594;9.938;2023-07-28T08:00:08;0.40;;;0.40;;
15451;SDS011;7827;53.594;9.938;2023-07-28T08:02:39;0.50;;;0.50;;
15451;SDS011;7827;53.594;9.938;2023-07-28T08:05:13;0.50;;;0.50;;
15451;SDS011;7827;53.594;9.938;2023-07-28T08:07:41;0.50;;;0.50;;
15451;SDS011;7827;53.594;9.938;2023-07-28T08:10:10;0.40;;;0.40;;
15451;SDS011;7827;53.594;9.938;2023-07-28T08:12:39;0.40;;;0.40;;
15451;SDS011;7827;53.594;9.938;2023-07-28T08:15:08;0.40;;;0.40;;
15451;SDS011;7827;53.594;9.938;2023-07-28T08:17:37;0.50;;;0.50;;
15451;SDS011;7827;53.594;9.938;2023-07-28T08:20:08;0.40;;;0.40;;
15451;SDS011;7827;53.594;9.938;2023-07-28T08:22:37;0.40;;;0.40;;
15451;SDS011;7827;53.594;9.938;2023-07-28T08:25:06;0.40;;;0.40;;
15451;SDS011;7827;53.594;9.938;2023-07-28T08:27:34;0.40;;;0.40;;
15451;SDS011;7827;53.594;9.938;2023-07-28T08:30:03;0.40;;;0.40;;
15451;SDS011;7827;53.594;9.938;2023-07-28T08:32:32;0.40;;;0.40;;
15451;SDS011;7827;53.594;9.938;2023-07-28T08:35:01;0.40;;;0.40;;
15451;SDS011;7827;53.594;9.938;2023-07-28T08:37:32;0.40;;;0.40;;
15451;SDS011;7827;53.594;9.938;2023-07-28T08:40:00;0.40;;;0.40;;
15451;SDS011;7827;53.594;9.938;2023-07-28T08:42:32;0.50;;;0.50;;
15451;SDS011;7827;53.594;9.938;2023-07-28T08:45:06;0.30;;;0.30;;
15451;SDS011;7827;53.594;9.938;2023-07-28T08:47:35;0.50;;;0.50;;
15451;SDS011;7827;53.594;9.938;2023-07-28T08:50:05;0.40;;;0.40;;
15451;SDS011;7827;53.594;9.938;2023-07-28T08:52:35;0.40;;;0.40;;
15451;SDS011;7827;53.594;9.938;2023-07-28T08:55:04;0.40;;;0.40;;
15451;SDS011;7827;53.594;9.938;2023-07-28T08:57:34;0.50;;;0.50;;
15451;SDS011;7827;53.594;9.938;2023-07-28T09:00:06;0.40;;;0.40;;
15451;SDS011;7827;53.594;9.938;2023-07-28T09:02:37;0.40;;;0.40;;
15451;SDS011;7827;53.594;9.938;2023-07-28T09:05:06;0.50;;;0.50;;
15451;SDS011;7827;53.594;9.938;2023-07-28T09:07:46;0.40;;;0.40;;
15451;SDS011;7827;53.594;9.938;2023-07-28T09:10:14;0.50;;;0.50;;
15451;SDS011;7827;53.594;9.938;2023-07-28T09:12:47;0.40;;;0.40;;
15451;SDS011;7827;53.594;9.938;2023-07-28T09:15:16;0.40;;;0.40;;
15451;SDS011;7827;53.594;9.938;2023-07-28T09:17:45;0.40;;;0.40;;
15451;SDS011;7827;53.594;9.938;2023-07-28T09:20:14;0.40;;;0.40;;
15451;SDS011;7827;53.594;9.938;2023-07-28T09:22:45;0.40;;;0.40;;
15451;SDS011;7827;53.594;9.938;2023-07-28T09:25:19;0.40;;;0.40;;
15451;SDS011;7827;53.594;9.938;2023-07-28T09:27:51;0.50;;;0.50;;
15451;SDS011;7827;53.594;9.938;2023-07-28T09:30:20;0.40;;;0.40;;
15451;SDS011;7827;53.594;9.938;2023-07-28T09:32:50;0.40;;;0.40;;
15451;SDS011;7827;53.594;9.938;2023-07-28T09:35:21;0.40;;;0.40;;
15451;SDS011;7827;53.594;9.938;2023-07-28T09:37:51;0.40;;;0.40;;
15451;SDS011;7827;53.594;9.938;2023-07-28T09:40:21;0.40;;;0.40;;
15451;SDS011;7827;53.594;9.938;2023-07-28T09:42:50;0.40;;;0.40;;
15451;SDS011;7827;53.594;9.938;2023-07-28T09:45:22;0.40;;;0.40;;
15451;SDS011;7827;53.594;9.938;2023-07-28T09:48:05;0.40;;;0.40;;
15451;SDS011;7827;53.594;9.938;2023-07-28T09:50:36;0.40;;;0.40;;
15451;SDS011;7827;53.594;9.938;2023-07-28T09:53:07;0.40;;;0.40;;
15451;SDS011;7827;53.594;9.938;2023-07-28T09:55:38;0.40;;;0.40;;
15451;SDS011;7827;53.594;9.938;2023-07-28T09:58:09;0.40;;;0.40;;
15451;SDS011;7827;53.594;9.938;2023-07-28T10:00:41;0.40;;;0.40;;
15451;SDS011;7827;53.594;9.938;2023-07-28T10:03:10;0.40;;;0.40;;
15451;SDS011;7827;53.594;9.938;2023-07-28T10:05:39;0.40;;;0.40;;
15451;SDS011;7827;53.594;9.938;2023-07-28T10:08:10;0.40;;;0.40;;
15451;SDS011;7827;53.594;9.938;2023-07-28T10:10:39;0.40;;;0.40;;
15451;SDS011;7827;53.594;9.938;2023-07-28T10:13:15;0.40;;;0.40;;
15451;SDS011;7827;53.594;9.938;2023-07-28T10:15:48;0.30;;;0.30;;
15451;SDS011;7827;53.594;9.938;2023-07-28T10:18:19;0.40;;;0.40;;
15451;SDS011;7827;53.594;9.938;2023-07-28T10:20:48;0.40;;;0.40;;
15451;SDS011;7827;53.594;9.938;2023-07-28T10:23:19;0.40;;;0.40;;
15451;SDS011;7827;53.594;9.938;2023-07-28T10:25:55;0.40;;;0.40;;
15451;SDS011;7827;53.594;9.938;2023-07-28T10:28:27;0.40;;;0.40;;
15451;SDS011;7827;53.594;9.938;2023-07-28T10:30:58;0.40;;;0.40;;
15451;SDS011;7827;53.594;9.938;2023-07-28T10:33:32;0.40;;;0.40;;
15451;SDS011;7827;53.594;9.938;2023-07-28T10:36:11;0.40;;;0.40;;
15451;SDS011;7827;53.594;9.938;2023-07-28T10:38:43;0.40;;;0.40;;
15451;SDS011;7827;53.594;9.938;2023-07-28T10:41:13;0.50;;;0.50;;
15451;SDS011;7827;53.594;9.938;2023-07-28T10:43:43;0.30;;;0.30;;
15451;SDS011;7827;53.594;9.938;2023-07-28T10:46:14;0.40;;;0.40;;
15451;SDS011;7827;53.594;9.938;2023-07-28T10:48:45;0.38;;;0.38;;
15451;SDS011;7827;53.594;9.938;2023-07-28T10:51:22;0.30;;;0.30;;
15451;SDS011;7827;53.594;9.938;2023-07-28T10:53:56;0.30;;;0.30;;
15451;SDS011;7827;53.594;9.938;2023-07-28T10:56:25;0.40;;;0.40;;
15451;SDS011;7827;53.594;9.938;2023-07-28T10:58:57;0.40;;;0.40;;
15451;SDS011;7827;53.594;9.938;2023-07-28T11:01:33;0.40;;;0.40;;
15451;SDS011;7827;53.594;9.938;2023-07-28T11:04:07;0.40;;;0.40;;
15451;SDS011;7827;53.594;9.938;2023-07-28T11:06:39;0.30;;;0.30;;
15451;SDS011;7827;53.594;9.938;2023-07-28T11:09:12;0.40;;;0.40;;
15451;SDS011;7827;53.594;9.938;2023-07-28T11:11:42;0.40;;;0.40;;
15451;SDS011;7827;53.594;9.938;2023-07-28T11:14:14;0.35;;;0.35;;
15451;SDS011;7827;53.594;9.938;2023-07-28T11:16:45;0.30;;;0.30;;
15451;SDS011;7827;53.594;9.938;2023-07-28T11:19:15;0.30;;;0.30;;
15451;SDS011;7827;53.594;9.938;2023-07-28T11:21:51;0.40;;;0.40;;
15451;SDS011;7827;53.594;9.938;2023-07-28T11:24:23;0.30;;;0.30;;
15451;SDS011;7827;53.594;9.938;2023-07-28T11:26:52;0.30;;;0.30;;
15451;SDS011;7827;53.594;9.938;2023-07-28T11:29:22;0.30;;;0.30;;
15451;SDS011;7827;53.594;9.938;2023-07-28T11:31:51;0.30;;;0.30;;
15451;SDS011;7827;53.594;9.938;2023-07-28T11:34:20;0.50;;;0.50;;
15451;SDS011;7827;53.594;9.938;2023-07-28T11:36:48;0.40;;;0.40;;
15451;SDS011;7827;53.594;9.938;2023-07-28T11:39:18;0.32;;;0.32;;
15451;SDS011;7827;53.594;9.938;2023-07-28T11:41:50;0.30;;;0.30;;
15451;SDS011;7827;53.594;9.938;2023-07-28T11:44:21;0.35;;;0.35;;
15451;SDS011;7827;53.594;9.938;2023-07-28T11:46:51;0.30;;;0.30;;
15451;SDS011;7827;53.594;9.938;2023-07-28T11:49:22;0.38;;;0.38;;
15451;SDS011;7827;53.594;9.938;2023-07-28T11:51:51;0.38;;;0.38;;
15451;SDS011;7827;53.594;9.938;2023-07-28T11:54:22;0.30;;;0.30;;
15451;SDS011;7827;53.594;9.938;2023-07-28T11:56:55;0.30;;;0.30;;
15451;SDS011;7827;53.594;9.938;2023-07-28T11:59:24;0.30;;;0.30;;
15451;SDS011;7827;53.594;9.938;2023-07-28T12:01:56;0.30;;;0.30;;
15451;SDS011;7827;53.594;9.938;2023-07-28T12:04:30;0.30;;;0.30;;
15451;SDS011;7827;53.594;9.938;2023-07-28T12:07:07;0.30;;;0.30;;
15451;SDS011;7827;53.594;9.938;2023-07-28T12:09:48;0.30;;;0.30;;
15451;SDS011;7827;53.594;9.938;2023-07-28T12:12:23;0.35;;;0.35;;
15451;SDS011;7827;53.594;9.938;2023-07-28T12:14:56;0.30;;;0.30;;
15451;SDS011;7827;53.594;9.938;2023-07-28T12:17:33;0.30;;;0.30;;
15451;SDS011;7827;53.594;9.938;2023-07-28T12:20:06;0.38;;;0.38;;
15451;SDS011;7827;53.594;9.938;2023-07-28T12:22:39;0.30;;;0.30;;
15451;SDS011;7827;53.594;9.938;2023-07-28T12:25:08;0.30;;;0.30;;
15451;SDS011;7827;53.594;9.938;2023-07-28T12:27:39;0.30;;;0.30;;
15451;SDS011;7827;53.594;9.938;2023-07-28T12:30:08;0.30;;;0.30;;
15451;SDS011;7827;53.594;9.938;2023-07-28T12:32:40;0.30;;;0.30;;
15451;SDS011;7827;53.594;9.938;2023-07-28T12:35:28;0.30;;;0.30;;
15451;SDS011;7827;53.594;9.938;2023-07-28T12:38:01;0.30;;;0.30;;
15451;SDS011;7827;53.594;9.938;2023-07-28T12:40:51;0.20;;;0.20;;
15451;SDS011;7827;53.594;9.938;2023-07-28T12:43:25;0.30;;;0.30;;
15451;SDS011;7827;53.594;9.938;2023-07-28T12:45:58;0.30;;;0.30;;
15451;SDS011;7827;53.594;9.938;2023-07-28T12:48:29;0.30;;;0.30;;
15451;SDS011;7827;53.594;9.938;2023-07-28T12:50:58;0.20;;;0.20;;
15451;SDS011;7827;53.594;9.938;2023-07-28T12:53:30;0.30;;;0.30;;
15451;SDS011;7827;53.594;9.938;2023-07-28T12:55:58;0.30;;;0.30;;
15451;SDS011;7827;53.594;9.938;2023-07-28T12:58:28;0.30;;;0.30;;
15451;SDS011;7827;53.594;9.938;2023-07-28T13:01:00;0.30;;;0.30;;
15451;SDS011;7827;53.594;9.938;2023-07-28T13:03:30;0.30;;;0.30;;
15451;SDS011;7827;53.594;9.938;2023-07-28T13:05:59;0.30;;;0.30;;
15451;SDS011;7827;53.594;9.938;2023-07-28T13:08:28;0.30;;;0.30;;
15451;SDS011;7827;53.594;9.938;2023-07-28T13:10:59;0.40;;;0.40;;
15451;SDS011;7827;53.594;9.938;2023-07-28T13:13:32;0.40;;;0.40;;
15451;SDS011;7827;53.594;9.938;2023-07-28T13:16:01;0.30;;;0.30;;
15451;SDS011;7827;53.594;9.938;2023-07-28T13:18:29;0.30;;;0.30;;
15451;SDS011;7827;53.594;9.938;2023-07-28T13:20:59;0.40;;;0.40;;
15451;SDS011;7827;53.594;9.938;2023-07-28T13:23:28;0.30;;;0.30;;
15451;SDS011;7827;53.594;9.938;2023-07-28T13:25:56;0.30;;;0.30;;
15451;SDS011;7827;53.594;9.938;2023-07-28T13:28:24;0.30;;;0.30;;
15451;SDS011;7827;53.594;9.938;2023-07-28T13:30:54;0.38;;;0.38;;
15451;SDS011;7827;53.594;9.938;2023-07-28T13:33:22;0.30;;;0.30;;
15451;SDS011;7827;53.594;9.938;2023-07-28T13:35:51;0.30;;;0.30;;
15451;SDS011;7827;53.594;9.938;2023-07-28T13:38:19;0.40;;;0.40;;
15451;SDS011;7827;53.594;9.938;2023-07-28T13:40:47;0.60;;;0.30;;
15451;SDS011;7827;53.594;9.938;2023-07-28T13:43:16;0.30;;;0.30;;
15451;SDS011;7827;53.594;9.938;2023-07-28T13:45:44;0.35;;;0.35;;
15451;SDS011;7827;53.594;9.938;2023-07-28T13:48:14;0.30;;;0.30;;
15451;SDS011;7827;53.594;9.938;2023-07-28T13:50:45;0.30;;;0.30;;
15451;SDS011;7827;53.594;9.938;2023-07-28T13:53:16;0.30;;;0.30;;
15451;SDS011;7827;53.594;9.938;2023-07-28T13:55:48;0.30;;;0.30;;
15451;SDS011;7827;53.594;9.938;2023-07-28T13:58:23;0.30;;;0.30;;
15451;SDS011;7827;53.594;9.938;2023-07-28T14:00:51;0.30;;;0.30;;
15451;SDS011;7827;53.594;9.938;2023-07-28T14:03:21;0.30;;;0.30;;
15451;SDS011;7827;53.594;9.938;2023-07-28T14:05:50;0.30;;;0.30;;
15451;SDS011;7827;53.594;9.938;2023-07-28T14:08:18;0.30;;;0.30;;
15451;SDS011;7827;53.594;9.938;2023-07-28T14:10:47;0.30;;;0.30;;
15451;SDS011;7827;53.594;9.938;2023-07-28T14:13:16;0.30;;;0.30;;
15451;SDS011;7827;53.594;9.938;2023-07-28T14:15:44;0.30;;;0.30;;
15451;SDS011;7827;53.594;9.938;2023-07-28T14:18:12;0.30;;;0.30;;
15451;SDS011;7827;53.594;9.938;2023-07-28T14:20:42;0.30;;;0.30;;
15451;SDS011;7827;53.594;9.938;2023-07-28T14:23:20;0.30;;;0.30;;
15451;SDS011;7827;53.594;9.938;2023-07-28T14:25:51;0.30;;;0.30;;
15451;SDS011;7827;53.594;9.938;2023-07-28T14:28:20;0.30;;;0.30;;
15451;SDS011;7827;53.594;9.938;2023-07-28T14:30:50;0.20;;;0.20;;
15451;SDS011;7827;53.594;9.938;2023-07-28T14:33:19;0.30;;;0.30;;
15451;SDS011;7827;53.594;9.938;2023-07-28T14:35:49;0.30;;;0.30;;
15451;SDS011;7827;53.594;9.938;2023-07-28T14:38:17;0.30;;;0.30;;
15451;SDS011;7827;53.594;9.938;2023-07-28T14:40:46;0.20;;;0.20;;
15451;SDS011;7827;53.594;9.938;2023-07-28T14:43:16;0.30;;;0.30;;
15451;SDS011;7827;53.594;9.938;2023-07-28T14:45:44;0.25;;;0.25;;
15451;SDS011;7827;53.594;9.938;2023-07-28T14:48:13;0.20;;;0.20;;
15451;SDS011;7827;53.594;9.938;2023-07-28T14:50:41;0.20;;;0.20;;
15451;SDS011;7827;53.594;9.938;2023-07-28T14:53:33;0.28;;;0.28;;
15451;SDS011;7827;53.594;9.938;2023-07-28T14:56:03;0.20;;;0.20;;
15451;SDS011;7827;53.594;9.938;2023-07-28T14:58:32;0.30;;;0.30;;
15451;SDS011;7827;53.594;9.938;2023-07-28T15:01:01;0.22;;;0.22;;
15451;SDS011;7827;53.594;9.938;2023-07-28T15:03:33;0.35;;;0.35;;
15451;SDS011;7827;53.594;9.938;2023-07-28T15:06:02;0.30;;;0.30;;
15451;SDS011;7827;53.594;9.938;2023-07-28T15:08:32;0.30;;;0.30;;
15451;SDS011;7827;53.594;9.938;2023-07-28T15:11:01;0.30;;;0.30;;
15451;SDS011;7827;53.594;9.938;2023-07-28T15:13:29;0.25;;;0.25;;
15451;SDS011;7827;53.594;9.938;2023-07-28T15:15:58;0.20;;;0.20;;
15451;SDS011;7827;53.594;9.938;2023-07-28T15:18:26;0.30;;;0.30;;
15451;SDS011;7827;53.594;9.938;2023-07-28T15:20:55;0.22;;;0.22;;